createdAt,value
2018-10-07T00:03:46.037Z,100686.13
2018-10-07T00:08:48.187Z,100696.28
2018-10-07T00:14:00.296Z,100689.23
2018-10-07T00:19:15.699Z,100718.95
2018-10-07T00:24:28.736Z,100741.23
2018-10-07T00:29:32.427Z,100748.27
2018-10-07T00:34:34.524Z,100760.20
2018-10-07T00:39:36.651Z,100774.47
2018-10-07T00:44:38.798Z,100787.99
2018-10-07T00:49:40.930Z,100794.19
2018-10-07T00:54:43.098Z,100788.21
2018-10-07T00:59:45.263Z,100813.33
2018-10-07T01:04:47.462Z,100815.36
2018-10-07T01:09:49.592Z,100828.23
2018-10-07T01:14:51.810Z,100835.58
2018-10-07T01:19:54.147Z,100848.89
2018-10-07T01:24:56.251Z,100865.66
2018-10-07T01:29:58.362Z,100873.77
2018-10-07T01:35:00.511Z,100883.06
2018-10-07T01:40:02.667Z,100890.77
2018-10-07T01:45:04.835Z,100893.30
2018-10-07T01:50:07.157Z,100906.24
2018-10-07T01:55:09.381Z,100923.20
2018-10-07T02:00:11.526Z,100926.42
2018-10-07T02:05:13.704Z,100943.62
2018-10-07T02:10:15.767Z,100942.67
2018-10-07T02:15:18.011Z,100951.33
2018-10-07T02:20:20.123Z,100963.13
2018-10-07T02:25:22.220Z,100968.77
2018-10-07T02:30:24.339Z,100971.49
2018-10-07T02:35:26.475Z,100976.52
2018-10-07T02:40:28.623Z,100990.44
2018-10-07T02:45:30.768Z,101003.13
2018-10-07T02:50:32.985Z,101023.91
2018-10-07T02:55:35.169Z,101029.09
2018-10-07T03:00:37.309Z,101031.02
2018-10-07T03:05:39.418Z,101031.54
2018-10-07T03:10:41.534Z,101034.86
2018-10-07T03:15:43.666Z,101060.28
2018-10-07T03:20:45.777Z,101075.28
2018-10-07T03:25:47.946Z,101074.51
2018-10-07T03:30:50.087Z,101059.47
2018-10-07T03:35:52.215Z,101065.51
2018-10-07T03:40:54.380Z,101071.14
2018-10-07T03:45:56.463Z,101070.05
2018-10-07T03:50:58.643Z,101072.18
2018-10-07T03:56:00.785Z,101084.96
2018-10-07T04:01:02.941Z,101088.02
2018-10-07T04:06:05.054Z,101101.17
2018-10-07T04:11:07.182Z,101120.33
2018-10-07T04:16:09.288Z,101126.52
2018-10-07T04:21:11.480Z,101133.92
2018-10-07T04:26:13.622Z,101130.08
2018-10-07T04:31:15.735Z,101127.16
2018-10-07T04:36:17.836Z,101137.19
2018-10-07T04:41:19.931Z,101146.88
2018-10-07T04:46:22.193Z,101146.00
2018-10-07T04:51:24.258Z,101162.13
2018-10-07T04:56:26.398Z,101166.23
2018-10-07T05:01:28.548Z,101176.63
2018-10-07T05:06:32.715Z,101164.66
2018-10-07T05:11:34.880Z,101187.41
2018-10-07T05:16:38.837Z,101200.38
2018-10-07T05:21:40.968Z,101208.05
2018-10-07T05:26:43.164Z,101217.13
2018-10-07T05:31:45.270Z,101228.83
2018-10-07T05:36:47.388Z,101230.31
2018-10-07T05:41:49.512Z,101239.02
2018-10-07T05:46:51.700Z,101249.99
2018-10-07T05:51:53.879Z,101260.87
2018-10-07T05:56:56.072Z,101275.86
2018-10-07T06:02:01.115Z,101286.56
2018-10-07T06:07:03.687Z,101292.40
2018-10-07T06:12:06.071Z,101295.31
2018-10-07T06:17:08.231Z,101300.64
2018-10-07T06:22:10.420Z,101311.68
2018-10-07T06:27:12.621Z,101319.47
2018-10-07T06:32:14.829Z,101327.77
2018-10-07T06:37:17.054Z,101345.61
2018-10-07T06:42:19.213Z,101349.71
2018-10-07T06:47:21.419Z,101347.20
2018-10-07T06:52:23.619Z,101362.34
2018-10-07T06:57:25.843Z,101374.86
2018-10-07T07:02:28.415Z,101373.75
2018-10-07T07:07:30.576Z,101387.59
2018-10-07T07:12:32.761Z,101384.31
2018-10-07T07:17:34.953Z,101366.16
2018-10-07T07:22:37.130Z,101371.64
2018-10-07T07:27:39.288Z,101377.90
2018-10-07T07:32:41.410Z,101396.19
2018-10-07T07:37:43.603Z,101407.72
2018-10-07T07:42:45.791Z,101423.49
2018-10-07T07:47:47.966Z,101438.62
2018-10-07T07:52:50.147Z,101442.94
2018-10-07T07:57:52.415Z,101445.94
2018-10-07T08:02:54.558Z,101449.98
2018-10-07T08:07:56.708Z,101473.55
2018-10-07T08:12:58.859Z,101486.83
2018-10-07T08:18:01.027Z,101506.35
2018-10-07T08:23:03.162Z,101507.67
2018-10-07T08:28:05.578Z,101507.27
2018-10-07T08:33:07.757Z,101516.66
2018-10-07T08:38:09.927Z,101523.45
2018-10-07T08:43:12.330Z,101539.11
2018-10-07T08:48:14.510Z,101557.19
2018-10-07T08:53:16.646Z,101569.66
2018-10-07T08:58:18.812Z,101567.91
2018-10-07T09:03:21.755Z,101571.97
2018-10-07T09:08:23.931Z,101578.17
2018-10-07T09:13:26.081Z,101591.31
2018-10-07T09:18:28.181Z,101584.78
2018-10-07T09:23:30.438Z,101591.17
2018-10-07T09:28:32.594Z,101599.70
2018-10-07T09:33:34.749Z,101595.91
2018-10-07T09:38:36.913Z,101598.75
2018-10-07T09:43:39.050Z,101593.84
2018-10-07T09:48:41.222Z,101602.42
2018-10-07T09:53:43.349Z,101601.34
2018-10-07T09:58:45.574Z,101601.95
2018-10-07T10:03:47.833Z,101617.19
2018-10-07T10:08:49.980Z,101624.91
2018-10-07T10:13:52.124Z,101628.09
2018-10-07T10:18:54.365Z,101623.76
2018-10-07T10:26:16.998Z,101617.47
2018-10-07T10:31:31.432Z,101614.44
2018-10-07T10:36:41.223Z,101605.66
2018-10-07T10:41:47.688Z,101598.33
2018-10-07T10:46:56.119Z,101603.55
2018-10-07T10:52:42.876Z,101625.19
2018-10-07T10:57:48.025Z,101637.23
2018-10-07T11:07:11.596Z,101639.38
2018-10-07T11:12:55.952Z,101645.23
2018-10-07T11:20:14.153Z,101657.97
2018-10-07T11:25:29.417Z,101657.82
2018-10-07T11:31:09.894Z,101658.21
2018-10-07T11:36:28.289Z,101654.47
2018-10-07T11:41:54.208Z,101655.23
2018-10-07T11:47:07.351Z,101664.78
2018-10-07T11:52:23.069Z,101673.66
2018-10-07T11:57:25.728Z,101679.77
2018-10-07T12:02:28.011Z,101695.44
2018-10-07T12:07:31.221Z,101697.20
2018-10-07T12:12:33.368Z,101697.62
2018-10-07T12:17:35.513Z,101704.89
2018-10-07T12:22:37.669Z,101696.72
2018-10-07T12:27:39.829Z,101703.12
2018-10-07T12:32:41.965Z,101703.98
2018-10-07T12:37:44.115Z,101706.38
2018-10-07T12:42:46.295Z,101702.18
2018-10-07T12:47:48.489Z,101698.30
2018-10-07T12:52:51.352Z,101702.84
2018-10-07T12:57:53.483Z,101718.60
2018-10-07T13:02:55.647Z,101719.02
2018-10-07T13:07:57.828Z,101718.52
2018-10-07T13:13:00.019Z,101702.65
2018-10-07T13:18:02.199Z,101728.56
2018-10-07T13:23:04.353Z,101731.32
2018-10-07T13:28:06.647Z,101739.58
2018-10-07T13:33:08.848Z,101747.42
2018-10-07T13:38:11.477Z,101748.95
2018-10-07T13:43:13.601Z,101748.34
2018-10-07T13:48:15.753Z,101752.11
2018-10-07T13:53:18.010Z,101763.91
2018-10-07T13:58:20.197Z,101760.19
2018-10-07T14:03:22.379Z,101767.02
2018-10-07T14:08:24.604Z,101765.32
2018-10-07T14:13:27.163Z,101766.16
2018-10-07T14:18:29.315Z,101770.30
2018-10-07T14:23:31.466Z,101766.22
2018-10-07T14:28:33.598Z,101759.80
2018-10-07T14:33:35.895Z,101758.50
2018-10-07T14:38:38.072Z,101756.52
2018-10-07T14:43:40.255Z,101754.25
2018-10-07T14:48:42.431Z,101783.16
2018-10-07T14:53:44.672Z,101777.45
2018-10-07T14:58:46.827Z,101785.36
2018-10-07T15:03:49.074Z,101786.11
2018-10-07T15:08:51.356Z,101781.00
2018-10-07T15:13:53.567Z,101786.02
2018-10-07T15:18:55.759Z,101799.73
2018-10-07T15:23:58.072Z,101802.81
2018-10-07T15:29:00.261Z,101796.02
2018-10-07T15:34:02.458Z,101803.70
2018-10-07T15:39:05.460Z,101810.01
2018-10-07T15:44:07.710Z,101814.05
2018-10-07T15:49:09.932Z,101818.33
2018-10-07T15:54:12.142Z,101819.48
2018-10-07T15:59:14.377Z,101812.59
2018-10-07T16:04:17.174Z,101807.63
2018-10-07T16:09:19.439Z,101806.78
2018-10-07T16:14:21.629Z,101812.41
2018-10-07T16:19:23.815Z,101804.19
2018-10-07T16:24:26.007Z,101802.70
2018-10-07T16:29:28.164Z,101809.81
2018-10-07T16:34:30.318Z,101818.38
2018-10-07T16:39:33.682Z,101833.05
2018-10-07T16:44:35.933Z,101835.95
2018-10-07T16:49:38.114Z,101850.77
2018-10-07T16:54:40.260Z,101857.33
2018-10-07T16:59:42.435Z,101860.13
2018-10-07T17:04:44.657Z,101865.70
2018-10-07T17:09:46.938Z,101867.61
2018-10-07T17:14:49.601Z,101874.73
2018-10-07T17:19:51.943Z,101877.56
2018-10-07T17:24:54.245Z,101891.78
2018-10-07T17:29:56.421Z,101895.34
2018-10-07T17:34:58.633Z,101911.92
2018-10-07T17:40:00.811Z,101907.53
2018-10-07T17:45:03.310Z,101926.08
2018-10-07T17:50:05.505Z,101929.38
2018-10-07T17:55:07.772Z,101924.41
2018-10-07T18:00:10.056Z,101930.19
2018-10-07T18:05:12.984Z,101928.81
2018-10-07T18:10:15.268Z,101913.82
2018-10-07T18:15:17.582Z,101923.43
2018-10-07T18:20:19.825Z,101919.39
2018-10-07T18:25:22.117Z,101921.52
2018-10-07T18:30:24.528Z,101919.84
2018-10-07T18:35:26.946Z,101912.34
2018-10-07T18:40:29.288Z,101928.93
2018-10-07T18:45:31.691Z,101926.81
2018-10-07T18:50:34.282Z,101940.30
2018-10-07T18:55:36.907Z,101945.78
2018-10-07T19:00:39.386Z,101947.70
2018-10-07T19:05:42.069Z,101966.39
2018-10-07T19:10:44.781Z,101967.91
2018-10-07T19:15:47.389Z,101963.73
2018-10-07T19:20:50.321Z,101968.56
2018-10-07T19:25:52.712Z,101971.97
2018-10-07T19:30:55.482Z,101974.34
2018-10-07T19:35:58.080Z,101966.05
2018-10-07T19:41:00.603Z,101977.38
2018-10-07T19:46:03.242Z,101976.25
2018-10-07T19:51:06.080Z,101982.51
2018-10-07T19:56:08.655Z,101973.72
2018-10-07T20:01:11.046Z,101964.55
2018-10-07T20:06:13.609Z,101966.77
2018-10-07T20:11:15.946Z,101957.59
2018-10-07T20:16:18.310Z,101952.84
2018-10-07T20:21:20.641Z,101950.52
2018-10-07T20:26:22.908Z,101954.39
2018-10-07T20:31:25.098Z,101957.86
2018-10-07T20:36:27.244Z,101949.56
2018-10-07T20:41:29.427Z,101945.27
2018-10-07T20:46:31.579Z,101950.48
2018-10-07T20:51:33.767Z,101946.31
2018-10-07T20:56:35.919Z,101959.09
2018-10-07T21:01:38.152Z,101948.11
2018-10-07T21:06:40.319Z,101950.05
2018-10-07T21:11:42.534Z,101943.27
2018-10-07T21:16:44.654Z,101926.84
2018-10-07T21:21:46.775Z,101921.48
2018-10-07T21:26:48.908Z,101926.91
2018-10-07T21:31:51.040Z,101920.59
2018-10-07T21:36:53.202Z,101923.78
2018-10-07T21:41:55.341Z,101923.83
2018-10-07T21:46:57.500Z,101926.31
2018-10-07T21:51:59.618Z,101928.59
2018-10-07T21:57:01.743Z,101929.64
2018-10-07T22:02:03.926Z,101927.47
2018-10-07T22:07:06.579Z,101935.27
2018-10-07T22:12:08.776Z,101932.23
2018-10-07T22:17:10.921Z,101933.50
2018-10-07T22:22:13.049Z,101926.28
2018-10-07T22:27:15.192Z,101923.56
2018-10-07T22:32:17.318Z,101925.37
2018-10-07T22:37:19.448Z,101930.16
2018-10-07T22:42:21.554Z,101932.84
2018-10-07T22:47:23.691Z,101927.06
2018-10-07T22:52:25.846Z,101925.42
2018-10-07T22:57:28.032Z,101923.12
2018-10-07T23:02:30.204Z,101919.64
2018-10-07T23:07:32.311Z,101919.08
2018-10-07T23:12:34.489Z,101923.08
2018-10-07T23:17:36.631Z,101925.56
2018-10-07T23:22:38.831Z,101923.28
2018-10-07T23:27:40.962Z,101923.42
2018-10-07T23:32:43.104Z,101930.69
2018-10-07T23:37:45.240Z,101932.82
2018-10-07T23:42:47.383Z,101917.19
2018-10-07T23:47:49.490Z,101924.75
2018-10-07T23:52:51.690Z,101937.02
2018-10-07T23:57:53.808Z,101939.31
